Time,TemperatureF,DewpointF,PressureIn,WindDirection,WindDirectionDegrees,WindSpeedMPH,WindSpeedGustMPH,Humidity,HourlyPrecipIn,Conditions,Clouds,dailyrainin,SolarRadiationWatts/m^2,SoftwareType,DateUTC
2013-09-10 00:01:00,73.5,69.7,30.14,NE,44,0.0,0.0,88,0.00,FEW,,0.00,0.0,WeatherDisplay:10.37,2013-09-10 04:01:00,
2013-09-10 00:06:00,73.5,69.7,30.14,NE,44,0.0,0.0,88,0.00,FEW,,0.00,0.0,WeatherDisplay:10.37,2013-09-10 04:06:00,
2013-09-10 00:11:00,73.5,69.7,30.14,NE,35,0.0,2.0,88,0.00,FEW,,0.00,0.0,WeatherDisplay:10.37,2013-09-10 04:11:00,
2013-09-10 00:16:00,73.5,69.7,30.14,NE,43,0.0,1.0,88,0.00,FEW,,0.00,0.0,WeatherDisplay:10.37,2013-09-10 04:16:00,
2013-09-10 00:21:00,73.5,69.7,30.14,ENE,65,0.0,1.0,88,0.00,FEW,,0.00,0.0,WeatherDisplay:10.37,2013-09-10 04:21:00,
2013-09-10 00:26:00,73.7,69.9,30.14,ENE,63,0.0,1.0,88,0.00,FEW,,0.00,0.0,WeatherDisplay:10.37,2013-09-10 04:26:00,
2013-09-10 00:31:00,73.7,69.9,30.14,ENE,63,0.0,0.0,88,0.00,FEW,,0.00,0.0,WeatherDisplay:10.37,2013-09-10 04:31:00,
2013-09-10 00:41:00,73.7,69.6,30.14,ENE,63,0.0,0.0,87,0.00,FEW,,0.00,0.0,WeatherDisplay:10.37,2013-09-10 04:41:00,
2013-09-10 00:46:00,73.7,69.6,30.14,ENE,63,0.0,0.0,87,0.00,FEW,,0.00,0.0,WeatherDisplay:10.37,2013-09-10 04:46:00,
2013-09-10 00:51:00,73.7,69.6,30.14,ENE,63,0.0,0.0,87,0.00,FEW,,0.00,0.0,WeatherDisplay:10.37,2013-09-10 04:51:00,
2013-09-10 00:56:00,73.7,69.6,30.14,ENE,63,0.0,0.0,87,0.00,FEW,,0.00,0.0,WeatherDisplay:10.37,2013-09-10 04:56:00,
2013-09-10 01:01:00,73.5,69.4,30.15,ENE,63,0.0,0.0,87,0.00,FEW,,0.00,0.0,WeatherDisplay:10.37,2013-09-10 05:01:00,
2013-09-10 01:06:00,73.5,69.4,30.15,ENE,63,0.0,0.0,87,0.00,FEW,,0.00,0.0,WeatherDisplay:10.37,2013-09-10 05:06:00,
2013-09-10 01:11:00,73.5,69.4,30.15,ENE,63,0.0,0.0,87,0.00,FEW,,0.00,0.0,WeatherDisplay:10.37,2013-09-10 05:11:00,
2013-09-10 01:16:00,73.3,69.2,30.15,ENE,63,0.0,0.0,87,0.00,FEW,,0.00,0.0,WeatherDisplay:10.37,2013-09-10 05:16:00,
2013-09-10 01:21:00,73.3,69.2,30.15,ENE,63,0.0,0.0,87,0.00,FEW,,0.00,0.0,WeatherDisplay:10.37,2013-09-10 05:21:00,
2013-09-10 01:26:00,73.3,69.1,30.15,ENE,63,0.0,0.0,87,0.00,FEW,,0.00,0.0,WeatherDisplay:10.37,2013-09-10 05:26:00,
2013-09-10 01:31:00,73.2,69.1,30.16,ENE,63,0.0,0.0,87,0.00,FEW,,0.00,0.0,WeatherDisplay:10.37,2013-09-10 05:31:00,
2013-09-10 01:41:00,73.0,68.9,30.16,ENE,63,0.0,0.0,87,0.00,FEW,,0.00,0.0,WeatherDisplay:10.37,2013-09-10 05:41:00,
2013-09-10 01:46:00,72.8,68.7,30.16,ENE,63,0.0,0.0,87,0.00,FEW,,0.00,0.0,WeatherDisplay:10.37,2013-09-10 05:46:00,
2013-09-10 01:51:00,72.8,68.7,30.16,ENE,63,0.0,0.0,87,0.00,FEW,,0.00,0.0,WeatherDisplay:10.37,2013-09-10 05:51:00,
2013-09-10 01:56:00,72.7,68.6,30.16,ENE,63,0.0,0.0,87,0.00,FEW,,0.00,0.0,WeatherDisplay:10.37,2013-09-10 05:56:00,
2013-09-10 02:01:00,72.7,68.6,30.16,ENE,63,0.0,0.0,87,0.00,CLR,,0.00,0.0,WeatherDisplay:10.37,2013-09-10 06:01:00,
2013-09-10 02:06:00,72.5,68.4,30.16,ENE,63,0.0,0.0,87,0.00,CLR,,0.00,0.0,WeatherDisplay:10.37,2013-09-10 06:06:00,
2013-09-10 02:11:00,72.3,68.2,30.16,ENE,63,0.0,0.0,87,0.00,CLR,,0.00,0.0,WeatherDisplay:10.37,2013-09-10 06:11:00,
2013-09-10 02:16:00,72.3,68.2,30.16,ENE,63,0.0,0.0,87,0.00,CLR,,0.00,0.0,WeatherDisplay:10.37,2013-09-10 06:16:00,
2013-09-10 02:21:00,72.1,68.0,30.16,ENE,63,0.0,0.0,87,0.00,CLR,,0.00,0.0,WeatherDisplay:10.37,2013-09-10 06:21:00,
2013-09-10 02:26:00,72.0,68.0,30.16,ENE,63,0.0,0.0,87,0.00,CLR,,0.00,0.0,WeatherDisplay:10.37,2013-09-10 06:26:00,
2013-09-10 02:36:00,71.8,68.1,30.16,ENE,63,0.0,0.0,88,0.00,CLR,,0.00,0.0,WeatherDisplay:10.37,2013-09-10 06:36:00,
2013-09-10 02:41:00,71.8,68.1,30.16,ENE,63,0.0,0.0,88,0.00,CLR,,0.00,0.0,WeatherDisplay:10.37,2013-09-10 06:41:00,
2013-09-10 02:46:00,71.7,67.9,30.16,ENE,63,0.0,0.0,88,0.00,CLR,,0.00,0.0,WeatherDisplay:10.37,2013-09-10 06:46:00,
2013-09-10 02:51:00,71.6,68.2,30.16,ENE,63,0.0,0.0,89,0.00,CLR,,0.00,0.0,WeatherDisplay:10.37,2013-09-10 06:51:00,
2013-09-10 02:56:00,71.6,67.9,30.16,ENE,63,0.0,0.0,88,0.00,CLR,,0.00,0.0,WeatherDisplay:10.37,2013-09-10 06:56:00,
2013-09-10 03:01:00,71.5,68.1,30.16,ENE,63,0.0,0.0,89,0.00,CLR,,0.00,0.0,WeatherDisplay:10.37,2013-09-10 07:01:00,
2013-09-10 03:06:00,71.5,68.1,30.16,ENE,63,0.0,0.0,89,0.00,CLR,,0.00,0.0,WeatherDisplay:10.37,2013-09-10 07:06:00,
2013-09-10 03:11:00,71.5,68.1,30.16,ENE,63,0.0,0.0,89,0.00,CLR,,0.00,0.0,WeatherDisplay:10.37,2013-09-10 07:11:00,
2013-09-10 03:16:00,71.3,67.9,30.16,ENE,63,0.0,0.0,89,0.00,CLR,,0.00,0.0,WeatherDisplay:10.37,2013-09-10 07:16:00,
2013-09-10 03:21:00,71.3,67.9,30.16,ENE,63,0.0,0.0,89,0.00,CLR,,0.00,0.0,WeatherDisplay:10.37,2013-09-10 07:21:00,
2013-09-10 03:26:00,71.1,67.7,30.16,ENE,63,0.0,0.0,89,0.00,CLR,,0.00,0.0,WeatherDisplay:10.37,2013-09-10 07:26:00,
2013-09-10 03:31:00,70.9,67.5,30.16,ENE,63,0.0,0.0,89,0.00,CLR,,0.00,0.0,WeatherDisplay:10.37,2013-09-10 07:31:00,
2013-09-10 03:36:00,70.9,67.5,30.16,ENE,63,0.0,2.0,89,0.00,CLR,,0.00,0.0,WeatherDisplay:10.37,2013-09-10 07:36:00,
2013-09-10 03:41:00,70.8,67.4,30.16,ENE,63,0.0,0.0,89,0.00,CLR,,0.00,0.0,WeatherDisplay:10.37,2013-09-10 07:41:00,
2013-09-10 03:46:00,70.8,67.4,30.16,ENE,63,0.0,0.0,89,0.00,CLR,,0.00,0.0,WeatherDisplay:10.37,2013-09-10 07:46:00,
2013-09-10 03:51:00,70.6,67.2,30.16,ENE,63,0.0,0.0,89,0.00,CLR,,0.00,0.0,WeatherDisplay:10.37,2013-09-10 07:51:00,
2013-09-10 03:56:00,70.6,67.2,30.16,ENE,63,0.0,0.0,89,0.00,CLR,,0.00,0.0,WeatherDisplay:10.37,2013-09-10 07:56:00,
2013-09-10 04:01:00,70.4,67.0,30.16,ENE,63,0.0,0.0,89,0.00,CLR,,0.00,0.0,WeatherDisplay:10.37,2013-09-10 08:01:00,
2013-09-10 04:06:00,70.4,67.0,30.16,ENE,63,0.0,0.0,89,0.00,CLR,,0.00,0.0,WeatherDisplay:10.37,2013-09-10 08:06:00,
2013-09-10 04:11:00,70.3,66.9,30.16,ENE,63,0.0,0.0,89,0.00,CLR,,0.00,0.0,WeatherDisplay:10.37,2013-09-10 08:11:00,
2013-09-10 04:16:00,70.3,66.9,30.16,ENE,63,0.0,0.0,89,0.00,CLR,,0.00,0.0,WeatherDisplay:10.37,2013-09-10 08:16:00,
2013-09-10 04:21:00,70.1,66.7,30.16,ENE,63,0.0,0.0,89,0.00,CLR,,0.00,0.0,WeatherDisplay:10.37,2013-09-10 08:21:00,
2013-09-10 04:26:00,70.1,66.7,30.16,ENE,63,0.0,0.0,89,0.00,CLR,,0.00,0.0,WeatherDisplay:10.37,2013-09-10 08:26:00,
2013-09-10 04:31:00,69.9,66.5,30.16,ENE,63,0.0,0.0,89,0.00,CLR,,0.00,0.0,WeatherDisplay:10.37,2013-09-10 08:31:00,
2013-09-10 04:36:00,69.9,66.5,30.16,ENE,63,0.0,0.0,89,0.00,CLR,,0.00,0.0,WeatherDisplay:10.37,2013-09-10 08:36:00,
2013-09-10 04:46:00,69.8,66.7,30.16,ENE,63,0.0,0.0,90,0.00,CLR,,0.00,0.0,WeatherDisplay:10.37,2013-09-10 08:46:00,
2013-09-10 04:51:00,69.6,66.5,30.16,ENE,63,0.0,0.0,90,0.00,CLR,,0.00,0.0,WeatherDisplay:10.37,2013-09-10 08:51:00,
2013-09-10 04:56:00,69.4,66.3,30.16,ENE,63,0.0,0.0,90,0.00,CLR,,0.00,0.0,WeatherDisplay:10.37,2013-09-10 08:56:00,
2013-09-10 05:01:00,69.4,66.3,30.17,ENE,63,0.0,0.0,90,0.00,CLR,,0.00,0.0,WeatherDisplay:10.37,2013-09-10 09:01:00,
2013-09-10 05:06:00,69.4,66.3,30.17,ENE,63,0.0,0.0,90,0.00,CLR,,0.00,0.0,WeatherDisplay:10.37,2013-09-10 09:06:00,
2013-09-10 05:11:00,69.3,66.2,30.17,ENE,63,0.0,0.0,90,0.00,CLR,,0.00,0.0,WeatherDisplay:10.37,2013-09-10 09:11:00,
2013-09-10 05:16:00,69.3,66.2,30.17,ENE,63,0.0,0.0,90,0.00,CLR,,0.00,0.0,WeatherDisplay:10.37,2013-09-10 09:16:00,
2013-09-10 05:21:00,69.1,66.0,30.17,ENE,63,0.0,0.0,90,0.00,CLR,,0.00,0.0,WeatherDisplay:10.37,2013-09-10 09:21:00,
2013-09-10 05:26:00,69.1,66.0,30.17,ENE,63,0.0,0.0,90,0.00,CLR,,0.00,0.0,WeatherDisplay:10.37,2013-09-10 09:26:00,
2013-09-10 05:31:00,68.9,65.8,30.17,ENE,63,0.0,0.0,90,0.00,CLR,,0.00,0.0,WeatherDisplay:10.37,2013-09-10 09:31:00,
2013-09-10 05:36:00,68.9,65.8,30.17,ENE,63,0.0,0.0,90,0.00,CLR,,0.00,0.0,WeatherDisplay:10.37,2013-09-10 09:36:00,
2013-09-10 05:41:00,68.9,66.2,30.17,ENE,63,0.0,0.0,91,0.00,CLR,,0.00,0.0,WeatherDisplay:10.37,2013-09-10 09:41:00,
2013-09-10 05:46:00,68.8,66.1,30.17,ENE,63,0.0,0.0,91,0.00,CLR,,0.00,0.0,WeatherDisplay:10.37,2013-09-10 09:46:00,
2013-09-10 05:51:00,68.8,66.1,30.17,ENE,63,0.0,0.0,91,0.00,CLR,,0.00,0.0,WeatherDisplay:10.37,2013-09-10 09:51:00,
2013-09-10 05:56:00,68.6,65.9,30.17,ENE,63,0.0,0.0,91,0.00,CLR,,0.00,0.0,WeatherDisplay:10.37,2013-09-10 09:56:00,
2013-09-10 06:01:00,68.6,65.9,30.17,ENE,63,0.0,0.0,91,0.00,CLR,,0.00,0.0,WeatherDisplay:10.37,2013-09-10 10:01:00,
2013-09-10 06:06:00,68.5,65.8,30.17,ENE,63,0.0,0.0,91,0.00,CLR,,0.00,0.0,WeatherDisplay:10.37,2013-09-10 10:06:00,
2013-09-10 06:11:00,68.4,65.7,30.17,ENE,63,0.0,0.0,91,0.00,CLR,,0.00,0.0,WeatherDisplay:10.37,2013-09-10 10:11:00,
2013-09-10 06:16:00,68.4,65.7,30.18,ENE,63,0.0,0.0,91,0.00,CLR,,0.00,0.0,WeatherDisplay:10.37,2013-09-10 10:16:00,
2013-09-10 06:21:00,68.3,65.6,30.18,ENE,63,0.0,0.0,91,0.00,CLR,,0.00,0.0,WeatherDisplay:10.37,2013-09-10 10:21:00,
2013-09-10 06:26:00,68.3,65.6,30.18,ENE,63,0.0,0.0,91,0.00,CLR,,0.00,0.0,WeatherDisplay:10.37,2013-09-10 10:26:00,
2013-09-10 06:31:00,68.1,65.4,30.19,ENE,63,0.0,0.0,91,0.00,CLR,,0.00,0.0,WeatherDisplay:10.37,2013-09-10 10:31:00,
2013-09-10 06:36:00,68.1,65.4,30.19,ENE,63,0.0,0.0,91,0.00,CLR,,0.00,0.0,WeatherDisplay:10.37,2013-09-10 10:36:00,
2013-09-10 06:41:00,68.1,65.4,30.19,ENE,63,0.0,0.0,91,0.00,CLR,,0.00,0.0,WeatherDisplay:10.37,2013-09-10 10:41:00,
2013-09-10 06:46:00,67.9,65.2,30.19,ENE,63,0.0,0.0,91,0.00,CLR,,0.00,0.0,WeatherDisplay:10.37,2013-09-10 10:46:00,
2013-09-10 06:51:00,67.9,65.5,30.19,ENE,63,0.0,0.0,92,0.00,CLR,,0.00,0.0,WeatherDisplay:10.37,2013-09-10 10:51:00,
2013-09-10 07:01:00,67.8,65.4,30.20,ENE,63,0.0,0.0,92,0.00,FEW,,0.00,0.0,WeatherDisplay:10.37,2013-09-10 11:01:00,
2013-09-10 07:11:00,67.8,65.4,30.20,ENE,63,0.0,0.0,92,0.00,FEW,,0.00,10.3,WeatherDisplay:10.37,2013-09-10 11:11:00,
2013-09-10 07:16:00,67.6,65.2,30.20,ENE,63,0.0,0.0,92,0.00,FEW,,0.00,12.7,WeatherDisplay:10.37,2013-09-10 11:16:00,
2013-09-10 07:21:00,67.6,65.2,30.20,ENE,63,0.0,0.0,92,0.00,FEW,,0.00,16.1,WeatherDisplay:10.37,2013-09-10 11:21:00,
2013-09-10 07:26:00,67.6,65.2,30.20,ENE,63,0.0,0.0,92,0.00,FEW,,0.00,18.4,WeatherDisplay:10.37,2013-09-10 11:26:00,
2013-09-10 07:31:00,67.6,65.2,30.20,ENE,63,0.0,0.0,92,0.00,FEW,,0.00,21.9,WeatherDisplay:10.37,2013-09-10 11:31:00,
2013-09-10 07:36:00,67.6,65.2,30.20,ENE,63,0.0,0.0,92,0.00,FEW,,0.00,24.1,WeatherDisplay:10.37,2013-09-10 11:36:00,
2013-09-10 07:41:00,67.6,65.2,30.20,ENE,63,0.0,0.0,92,0.00,FEW,,0.00,28.8,WeatherDisplay:10.37,2013-09-10 11:41:00,
2013-09-10 07:46:00,67.8,65.4,30.20,ENE,63,0.0,0.0,92,0.00,FEW,,0.00,29.9,WeatherDisplay:10.37,2013-09-10 11:46:00,
2013-09-10 07:51:00,67.8,65.7,30.20,ENE,63,0.0,0.0,93,0.00,FEW,,0.00,34.5,WeatherDisplay:10.37,2013-09-10 11:51:00,
2013-09-10 07:56:00,67.9,65.8,30.20,ENE,63,0.0,0.0,93,0.00,FEW,,0.00,38.0,WeatherDisplay:10.37,2013-09-10 11:56:00,
2013-09-10 08:01:00,68.0,65.9,30.20,ENE,63,0.0,0.0,93,0.00,FEW,,0.00,40.3,WeatherDisplay:10.37,2013-09-10 12:01:00,
2013-09-10 08:06:00,68.1,66.3,30.20,ENE,63,0.0,0.0,94,0.00,FEW,,0.00,44.9,WeatherDisplay:10.37,2013-09-10 12:06:00,
2013-09-10 08:11:00,68.3,66.5,30.20,ENE,63,0.0,0.0,94,0.00,FEW,,0.00,44.9,WeatherDisplay:10.37,2013-09-10 12:11:00,
2013-09-10 08:16:00,68.4,66.6,30.20,ENE,63,0.0,0.0,94,0.00,FEW,,0.00,46.0,WeatherDisplay:10.37,2013-09-10 12:16:00,
2013-09-10 08:21:00,68.8,67.3,30.20,ENE,63,0.0,0.0,95,0.00,FEW,,0.00,50.6,WeatherDisplay:10.37,2013-09-10 12:21:00,
2013-09-10 08:26:00,69.1,67.6,30.20,ENE,63,0.0,0.0,95,0.00,FEW,,0.00,52.9,WeatherDisplay:10.37,2013-09-10 12:26:00,
2013-09-10 08:31:00,69.3,67.8,30.21,ENE,63,0.0,0.0,95,0.00,FEW,,0.00,54.0,WeatherDisplay:10.37,2013-09-10 12:31:00,
2013-09-10 08:36:00,69.8,68.6,30.21,ENE,63,0.0,0.0,96,0.00,FEW,,0.00,56.4,WeatherDisplay:10.37,2013-09-10 12:36:00,
2013-09-10 08:41:00,70.3,69.1,30.21,ENE,63,0.0,0.0,96,0.00,FEW,,0.00,61.0,WeatherDisplay:10.37,2013-09-10 12:41:00,
2013-09-10 08:46:00,70.7,69.5,30.21,ENE,63,0.0,0.0,96,0.00,FEW,,0.00,62.1,WeatherDisplay:10.37,2013-09-10 12:46:00,
2013-09-10 08:51:00,71.0,69.8,30.21,ENE,63,0.0,0.0,96,0.00,FEW,,0.00,64.4,WeatherDisplay:10.37,2013-09-10 12:51:00,
2013-09-10 08:56:00,71.4,70.2,30.21,ENE,63,0.0,0.0,96,0.00,FEW,,0.00,69.0,WeatherDisplay:10.37,2013-09-10 12:56:00,
2013-09-10 09:01:00,71.6,70.4,30.22,ENE,63,0.0,0.0,96,0.00,FEW,,0.00,71.3,WeatherDisplay:10.37,2013-09-10 13:01:00,
2013-09-10 09:06:00,72.0,71.1,30.22,ENE,63,0.0,0.0,97,0.00,FEW,,0.00,74.8,WeatherDisplay:10.37,2013-09-10 13:06:00,
2013-09-10 09:11:00,72.3,71.4,30.22,ENE,63,0.0,0.0,97,0.00,FEW,,0.00,77.0,WeatherDisplay:10.37,2013-09-10 13:11:00,
2013-09-10 09:16:00,72.7,71.8,30.22,ENE,63,0.0,0.0,97,0.00,FEW,,0.00,98.9,WeatherDisplay:10.37,2013-09-10 13:16:00,
2013-09-10 09:21:00,73.0,72.1,30.22,ENE,63,0.0,0.0,97,0.00,FEW,,0.00,101.2,WeatherDisplay:10.37,2013-09-10 13:21:00,
2013-09-10 09:26:00,73.2,72.3,30.22,ENE,75,0.0,2.0,97,0.00,FEW,,0.00,111.5,WeatherDisplay:10.37,2013-09-10 13:26:00,
2013-09-10 09:31:00,73.5,72.6,30.22,East,86,0.0,1.0,97,0.00,FEW,,0.00,351.9,WeatherDisplay:10.37,2013-09-10 13:31:00,
2013-09-10 09:36:00,73.7,72.8,30.22,East,87,0.0,0.0,97,0.00,FEW,,0.00,96.6,WeatherDisplay:10.37,2013-09-10 13:36:00,
2013-09-10 09:41:00,73.8,72.8,30.22,SE,131,0.0,2.0,97,0.00,FEW,,0.00,103.5,WeatherDisplay:10.37,2013-09-10 13:41:00,
2013-09-10 09:46:00,73.9,72.7,30.22,SSW,196,0.0,0.0,96,0.00,FEW,,0.00,175.9,WeatherDisplay:10.37,2013-09-10 13:46:00,
2013-09-10 09:51:00,74.0,72.8,30.22,SSW,196,0.0,0.0,96,0.00,FEW,,0.00,98.9,WeatherDisplay:10.37,2013-09-10 13:51:00,
2013-09-10 09:56:00,74.4,73.1,30.22,SSW,196,0.0,0.0,96,0.00,FEW,,0.00,135.7,WeatherDisplay:10.37,2013-09-10 13:56:00,
2013-09-10 10:01:00,74.4,73.2,30.22,SSW,196,0.0,1.0,96,0.00,SCT,,0.00,175.9,WeatherDisplay:10.37,2013-09-10 14:01:00,
2013-09-10 10:06:00,74.7,73.5,30.22,SSW,197,0.0,0.0,96,0.00,SCT,,0.00,363.4,WeatherDisplay:10.37,2013-09-10 14:06:00,
2013-09-10 10:11:00,75.3,73.5,30.22,South,187,0.0,1.0,94,0.00,SCT,,0.00,616.4,WeatherDisplay:10.37,2013-09-10 14:11:00,
2013-09-10 10:16:00,76.0,72.8,30.23,NE,38,0.0,2.0,90,0.00,SCT,,0.00,637.1,WeatherDisplay:10.37,2013-09-10 14:16:00,
2013-09-10 10:21:00,76.7,72.2,30.23,SE,141,0.0,2.0,86,0.00,SCT,,0.00,522.1,WeatherDisplay:10.37,2013-09-10 14:21:00,
2013-09-10 10:26:00,77.9,72.4,30.23,South,174,0.0,2.0,83,0.00,SCT,,0.00,664.7,WeatherDisplay:10.37,2013-09-10 14:26:00,
2013-09-10 10:36:00,79.5,72.0,30.23,SSE,168,0.0,2.0,78,0.00,SCT,,0.00,705.0,WeatherDisplay:10.37,2013-09-10 14:36:00,
2013-09-10 10:41:00,79.9,71.7,30.23,South,170,0.0,0.0,76,0.00,SCT,,0.00,719.9,WeatherDisplay:10.37,2013-09-10 14:41:00,
2013-09-10 10:46:00,80.3,71.3,30.23,SSE,167,0.0,1.0,74,0.00,SCT,,0.00,736.0,WeatherDisplay:10.37,2013-09-10 14:46:00,
2013-09-10 10:51:00,80.7,72.0,30.23,SSE,160,0.0,1.0,75,0.00,SCT,,0.00,747.5,WeatherDisplay:10.37,2013-09-10 14:51:00,
2013-09-10 10:56:00,81.1,70.4,30.23,SSE,159,0.0,1.0,70,0.00,SCT,,0.00,757.9,WeatherDisplay:10.37,2013-09-10 14:56:00,
2013-09-10 11:01:00,81.5,70.4,30.23,SSE,166,0.0,2.0,69,0.00,SCT,,0.00,778.5,WeatherDisplay:10.37,2013-09-10 15:01:00,
2013-09-10 11:06:00,82.0,71.7,30.23,South,171,0.0,0.0,71,0.00,SCT,,0.00,788.9,WeatherDisplay:10.37,2013-09-10 15:06:00,
2013-09-10 11:11:00,82.4,71.2,30.23,South,185,0.0,2.0,69,0.00,SCT,,0.00,805.0,WeatherDisplay:10.37,2013-09-10 15:11:00,
2013-09-10 11:16:00,82.6,69.6,30.22,SSW,203,1.0,2.0,65,0.00,SCT,,0.00,816.5,WeatherDisplay:10.37,2013-09-10 15:16:00,
2013-09-10 11:21:00,83.1,71.4,30.22,SSW,199,0.0,1.0,68,0.00,SCT,,0.00,824.5,WeatherDisplay:10.37,2013-09-10 15:21:00,
2013-09-10 11:26:00,83.2,69.8,30.22,WSW,240,0.0,2.0,64,0.00,SCT,,0.00,837.2,WeatherDisplay:10.37,2013-09-10 15:26:00,
2013-09-10 11:31:00,83.6,70.1,30.22,NW,318,0.0,2.0,64,0.00,SCT,,0.00,845.3,WeatherDisplay:10.37,2013-09-10 15:31:00,
2013-09-10 11:36:00,84.0,71.4,30.22,NNW,348,1.0,2.0,66,0.00,SCT,,0.00,856.8,WeatherDisplay:10.37,2013-09-10 15:36:00,
2013-09-10 11:41:00,83.9,70.4,30.22,NNW,336,0.0,2.0,64,0.00,SCT,,0.00,863.6,WeatherDisplay:10.37,2013-09-10 15:41:00,
2013-09-10 11:46:00,83.9,69.0,30.22,WNW,291,1.0,2.0,61,0.00,SCT,,0.00,875.1,WeatherDisplay:10.37,2013-09-10 15:46:00,
2013-09-10 11:51:00,84.1,69.2,30.22,SW,227,1.0,2.0,61,0.00,SCT,,0.00,871.7,WeatherDisplay:10.37,2013-09-10 15:51:00,
2013-09-10 11:56:00,84.5,69.1,30.22,SW,216,1.0,2.0,60,0.00,SCT,,0.00,887.8,WeatherDisplay:10.37,2013-09-10 15:56:00,
2013-09-10 12:01:00,84.9,69.5,30.22,South,180,0.0,5.0,60,0.00,SCT,,0.00,897.0,WeatherDisplay:10.37,2013-09-10 16:01:00,
2013-09-10 12:06:00,85.1,70.6,30.22,SW,217,0.0,2.0,62,0.00,SCT,,0.00,903.9,WeatherDisplay:10.37,2013-09-10 16:06:00,
2013-09-10 12:11:00,85.2,68.3,30.22,WSW,244,0.0,2.0,57,0.00,SCT,,0.00,912.0,WeatherDisplay:10.37,2013-09-10 16:11:00,
2013-09-10 12:21:00,85.5,67.5,30.22,SW,220,0.0,2.0,55,0.00,SCT,,0.00,922.3,WeatherDisplay:10.37,2013-09-10 16:21:00,
2013-09-10 12:26:00,85.9,68.9,30.22,SW,233,0.0,2.0,57,0.00,SCT,,0.00,930.4,WeatherDisplay:10.37,2013-09-10 16:26:00,
2013-09-10 12:31:00,86.1,67.0,30.22,West,268,0.0,4.0,53,0.00,SCT,,0.00,936.1,WeatherDisplay:10.37,2013-09-10 16:31:00,
2013-09-10 12:36:00,86.3,66.0,30.22,West,263,2.0,4.0,51,0.00,SCT,,0.00,933.8,WeatherDisplay:10.37,2013-09-10 16:36:00,
2013-09-10 12:41:00,86.5,68.9,30.22,West,261,0.0,2.0,56,0.00,SCT,,0.00,936.1,WeatherDisplay:10.37,2013-09-10 16:41:00,
2013-09-10 12:46:00,86.5,68.4,30.22,WSW,247,1.0,2.0,55,0.00,SCT,,0.00,936.1,WeatherDisplay:10.37,2013-09-10 16:46:00,
2013-09-10 12:51:00,86.5,69.5,30.22,SW,227,0.0,1.0,57,0.00,SCT,,0.00,936.1,WeatherDisplay:10.37,2013-09-10 16:51:00,
2013-09-10 12:56:00,86.5,67.9,30.22,SSW,209,1.0,2.0,54,0.00,SCT,,0.00,944.1,WeatherDisplay:10.37,2013-09-10 16:56:00,
2013-09-10 13:06:00,87.2,67.4,30.22,SW,230,0.0,3.0,52,0.00,SCT,,0.00,946.5,WeatherDisplay:10.37,2013-09-10 17:06:00,
2013-09-10 13:11:00,87.6,68.9,30.22,West,276,0.0,2.0,54,0.00,SCT,,0.00,944.1,WeatherDisplay:10.37,2013-09-10 17:11:00,
2013-09-10 13:16:00,87.6,69.4,30.21,NW,325,0.0,2.0,55,0.00,SCT,,0.00,946.5,WeatherDisplay:10.37,2013-09-10 17:16:00,
2013-09-10 13:21:00,87.9,68.6,30.21,WNW,285,0.0,2.0,53,0.00,SCT,,0.00,944.1,WeatherDisplay:10.37,2013-09-10 17:21:00,
2013-09-10 13:26:00,88.0,69.8,30.21,WSW,254,1.0,2.0,55,0.00,SCT,,0.00,930.4,WeatherDisplay:10.37,2013-09-10 17:26:00,
2013-09-10 13:31:00,87.8,68.5,30.21,WSW,254,0.0,1.0,53,0.00,SCT,,0.00,891.3,WeatherDisplay:10.37,2013-09-10 17:31:00,
2013-09-10 13:36:00,87.8,69.6,30.21,WSW,254,1.0,1.0,55,0.00,SCT,,0.00,838.4,WeatherDisplay:10.37,2013-09-10 17:36:00,
2013-09-10 13:41:00,87.6,68.9,30.21,WSW,254,0.0,0.0,54,0.00,SCT,,0.00,788.9,WeatherDisplay:10.37,2013-09-10 17:41:00,
2013-09-10 13:46:00,88.0,68.2,30.20,WSW,254,0.0,1.0,52,0.00,SCT,,0.00,747.5,WeatherDisplay:10.37,2013-09-10 17:46:00,
2013-09-10 13:51:00,88.3,67.3,30.20,WNW,283,0.0,3.0,50,0.00,SCT,,0.00,738.3,WeatherDisplay:10.37,2013-09-10 17:51:00,
2013-09-10 13:56:00,88.2,66.0,30.20,NW,315,0.0,2.0,48,0.00,SCT,,0.00,749.8,WeatherDisplay:10.37,2013-09-10 17:56:00,
2013-09-10 14:01:00,88.6,68.2,30.20,NW,324,1.0,2.0,51,0.00,SCT,,0.00,765.9,WeatherDisplay:10.37,2013-09-10 18:01:00,
2013-09-10 14:11:00,88.8,64.7,30.20,ESE,114,1.0,4.0,45,0.00,SCT,,0.00,843.0,WeatherDisplay:10.37,2013-09-10 18:11:00,
2013-09-10 14:16:00,89.0,65.5,30.19,SSE,166,0.0,3.0,46,0.00,SCT,,0.00,887.8,WeatherDisplay:10.37,2013-09-10 18:16:00,
2013-09-10 14:21:00,89.5,66.6,30.19,East,100,0.0,3.0,47,0.00,SCT,,0.00,899.3,WeatherDisplay:10.37,2013-09-10 18:21:00,
2013-09-10 14:26:00,89.3,65.8,30.19,NE,52,0.0,1.0,46,0.00,SCT,,0.00,872.9,WeatherDisplay:10.37,2013-09-10 18:26:00,
2013-09-10 14:31:00,89.4,68.9,30.19,ENE,64,0.0,2.0,51,0.00,SCT,,0.00,887.8,WeatherDisplay:10.37,2013-09-10 18:31:00,
2013-09-10 14:36:00,89.3,68.2,30.19,SE,140,0.0,2.0,50,0.00,SCT,,0.00,488.8,WeatherDisplay:10.37,2013-09-10 18:36:00,
2013-09-10 14:41:00,88.9,67.9,30.19,SSE,148,0.0,1.0,50,0.00,SCT,,0.00,887.8,WeatherDisplay:10.37,2013-09-10 18:41:00,
2013-09-10 14:46:00,88.8,69.5,30.19,SSE,148,0.0,0.0,53,0.00,SCT,,0.00,877.5,WeatherDisplay:10.37,2013-09-10 18:46:00,
2013-09-10 14:51:00,89.0,67.9,30.19,SE,125,1.0,3.0,50,0.00,SCT,,0.00,885.5,WeatherDisplay:10.37,2013-09-10 18:51:00,
2013-09-10 14:56:00,88.8,70.0,30.19,ENE,69,1.0,2.0,54,0.00,SCT,,0.00,871.7,WeatherDisplay:10.37,2013-09-10 18:56:00,
2013-09-10 15:01:00,88.8,67.7,30.18,NE,49,0.0,1.0,50,0.00,SCT,,0.00,863.6,WeatherDisplay:10.37,2013-09-10 19:01:00,
2013-09-10 15:06:00,89.3,69.4,30.18,NNW,331,0.0,2.0,52,0.00,SCT,,0.00,859.0,WeatherDisplay:10.37,2013-09-10 19:06:00,
2013-09-10 15:11:00,89.3,67.6,30.18,WSW,256,1.0,2.0,49,0.00,SCT,,0.00,843.0,WeatherDisplay:10.37,2013-09-10 19:11:00,
2013-09-10 15:16:00,89.6,67.9,30.17,NW,323,0.0,4.0,49,0.00,SCT,,0.00,843.0,WeatherDisplay:10.37,2013-09-10 19:16:00,
2013-09-10 15:21:00,89.8,68.1,30.17,WNW,298,1.0,4.0,49,0.00,SCT,,0.00,802.7,WeatherDisplay:10.37,2013-09-10 19:21:00,
2013-09-10 15:26:00,89.9,68.2,30.17,NW,317,0.0,2.0,49,0.00,SCT,,0.00,794.6,WeatherDisplay:10.37,2013-09-10 19:26:00,
2013-09-10 15:31:00,89.5,69.6,30.17,NNE,32,0.0,1.0,52,0.00,SCT,,0.00,778.5,WeatherDisplay:10.37,2013-09-10 19:31:00,
2013-09-10 15:36:00,89.5,69.0,30.17,SE,127,1.0,3.0,51,0.00,SCT,,0.00,784.3,WeatherDisplay:10.37,2013-09-10 19:36:00,
2013-09-10 15:41:00,89.7,69.2,30.17,SSW,205,1.0,3.0,51,0.00,SCT,,0.00,776.3,WeatherDisplay:10.37,2013-09-10 19:41:00,
2013-09-10 15:46:00,89.9,69.9,30.17,SSW,205,1.0,3.0,52,0.00,SCT,,0.00,752.1,WeatherDisplay:10.37,2013-09-10 19:46:00,
2013-09-10 15:51:00,89.7,68.0,30.17,South,174,0.0,2.0,49,0.00,SCT,,0.00,733.7,WeatherDisplay:10.37,2013-09-10 19:51:00,
2013-09-10 15:56:00,89.7,68.0,30.17,SSE,167,0.0,1.0,49,0.00,SCT,,0.00,171.3,WeatherDisplay:10.37,2013-09-10 19:56:00,
2013-09-10 16:01:00,89.8,69.3,30.16,SE,146,1.0,2.0,51,0.00,SCT,,0.00,163.3,WeatherDisplay:10.37,2013-09-10 20:01:00,
2013-09-10 16:06:00,89.9,68.2,30.16,ESE,108,2.0,3.0,49,0.00,SCT,,0.00,202.4,WeatherDisplay:10.37,2013-09-10 20:06:00,
2013-09-10 16:11:00,89.9,70.5,30.16,SSE,161,0.0,4.0,53,0.00,SCT,,0.00,271.4,WeatherDisplay:10.37,2013-09-10 20:11:00,
2013-09-10 16:16:00,90.1,70.7,30.16,South,169,0.0,2.0,53,0.00,SCT,,0.00,151.8,WeatherDisplay:10.37,2013-09-10 20:16:00,
2013-09-10 16:21:00,89.9,69.3,30.16,SSE,154,1.0,3.0,51,0.00,SCT,,0.00,131.1,WeatherDisplay:10.37,2013-09-10 20:21:00,
2013-09-10 16:26:00,89.9,68.8,30.16,ENE,69,1.0,3.0,50,0.00,SCT,,0.00,120.8,WeatherDisplay:10.37,2013-09-10 20:26:00,
2013-09-10 16:31:00,89.9,69.3,30.15,WNW,293,1.0,2.0,51,0.00,SCT,,0.00,135.7,WeatherDisplay:10.37,2013-09-10 20:31:00,
2013-09-10 16:36:00,89.7,67.4,30.15,WNW,294,0.0,1.0,48,0.00,SCT,,0.00,129.9,WeatherDisplay:10.37,2013-09-10 20:36:00,
2013-09-10 16:41:00,89.7,69.8,30.15,NW,312,0.0,2.0,52,0.00,SCT,,0.00,133.4,WeatherDisplay:10.37,2013-09-10 20:41:00,
2013-09-10 16:46:00,89.7,68.6,30.14,East,87,0.0,3.0,50,0.00,SCT,,0.00,123.0,WeatherDisplay:10.37,2013-09-10 20:46:00,
2013-09-10 16:51:00,89.7,68.0,30.14,East,98,0.0,2.0,49,0.00,SCT,,0.00,115.0,WeatherDisplay:10.37,2013-09-10 20:51:00,
2013-09-10 16:56:00,89.5,67.2,30.14,ESE,123,0.0,2.0,48,0.00,SCT,,0.00,95.5,WeatherDisplay:10.37,2013-09-10 20:56:00,
2013-09-10 17:01:00,89.5,67.8,30.14,SSW,195,2.0,4.0,49,0.00,SCT,,0.00,88.5,WeatherDisplay:10.37,2013-09-10 21:01:00,
2013-09-10 17:06:00,89.3,68.2,30.14,WSW,250,0.0,2.0,50,0.00,SCT,,0.00,82.8,WeatherDisplay:10.37,2013-09-10 21:06:00,
2013-09-10 17:11:00,89.3,67.6,30.14,SSE,148,0.0,6.0,49,0.00,SCT,,0.00,90.8,WeatherDisplay:10.37,2013-09-10 21:11:00,
2013-09-10 17:16:00,89.3,69.4,30.15,ENE,70,0.0,4.0,52,0.00,SCT,,0.00,96.6,WeatherDisplay:10.37,2013-09-10 21:16:00,
2013-09-10 17:21:00,89.0,67.4,30.15,West,268,0.0,2.0,49,0.00,SCT,,0.00,90.8,WeatherDisplay:10.37,2013-09-10 21:21:00,
2013-09-10 17:26:00,89.0,67.9,30.15,West,280,0.0,2.0,50,0.00,SCT,,0.00,71.3,WeatherDisplay:10.37,2013-09-10 21:26:00,
2013-09-10 17:31:00,88.8,67.8,30.15,WSW,249,1.0,5.0,50,0.00,SCT,,0.00,72.5,WeatherDisplay:10.37,2013-09-10 21:31:00,
2013-09-10 17:36:00,88.6,67.6,30.15,SW,234,0.0,5.0,50,0.00,SCT,,0.00,66.7,WeatherDisplay:10.37,2013-09-10 21:36:00,
2013-09-10 17:41:00,88.6,67.0,30.15,West,259,0.0,2.0,49,0.00,SCT,,0.00,77.0,WeatherDisplay:10.37,2013-09-10 21:41:00,
2013-09-10 17:46:00,88.4,67.4,30.15,WNW,299,0.0,2.0,50,0.00,SCT,,0.00,280.6,WeatherDisplay:10.37,2013-09-10 21:46:00,
2013-09-10 17:51:00,88.2,67.8,30.15,North,360,0.0,2.0,51,0.00,SCT,,0.00,272.6,WeatherDisplay:10.37,2013-09-10 21:51:00,
2013-09-10 17:56:00,88.0,67.6,30.15,North,356,0.0,2.0,51,0.00,SCT,,0.00,253.0,WeatherDisplay:10.37,2013-09-10 21:56:00,
2013-09-10 18:01:00,87.8,65.7,30.15,NNW,341,1.0,3.0,48,0.00,SCT,,0.00,234.6,WeatherDisplay:10.37,2013-09-10 22:01:00,
2013-09-10 18:06:00,87.6,66.1,30.15,NW,315,0.0,4.0,49,0.00,SCT,,0.00,218.5,WeatherDisplay:10.37,2013-09-10 22:06:00,
2013-09-10 18:11:00,87.6,66.1,30.15,West,276,0.0,3.0,49,0.00,SCT,,0.00,46.0,WeatherDisplay:10.37,2013-09-10 22:11:00,
2013-09-10 18:16:00,87.6,66.7,30.15,West,274,0.0,1.0,50,0.00,SCT,,0.00,40.3,WeatherDisplay:10.37,2013-09-10 22:16:00,
2013-09-10 18:21:00,87.6,67.2,30.15,WSW,237,0.0,1.0,51,0.00,SCT,,0.00,40.3,WeatherDisplay:10.37,2013-09-10 22:21:00,
2013-09-10 18:26:00,87.4,67.6,30.15,SSW,208,0.0,1.0,52,0.00,SCT,,0.00,36.8,WeatherDisplay:10.37,2013-09-10 22:26:00,
2013-09-10 18:36:00,87.2,68.5,30.15,SSW,207,0.0,0.0,54,0.00,SCT,,0.00,28.8,WeatherDisplay:10.37,2013-09-10 22:36:00,
2013-09-10 18:41:00,87.0,68.9,30.15,SSW,207,0.0,1.0,55,0.00,SCT,,0.00,26.4,WeatherDisplay:10.37,2013-09-10 22:41:00,
2013-09-10 18:46:00,86.5,68.4,30.14,SSW,207,0.0,0.0,55,0.00,SCT,,0.00,24.1,WeatherDisplay:10.37,2013-09-10 22:46:00,
2013-09-10 18:51:00,86.3,68.8,30.14,SSW,207,0.0,0.0,56,0.00,SCT,,0.00,20.7,WeatherDisplay:10.37,2013-09-10 22:51:00,
2013-09-10 18:56:00,85.9,68.4,30.14,SSW,207,0.0,0.0,56,0.00,SCT,,0.00,18.4,WeatherDisplay:10.37,2013-09-10 22:56:00,
2013-09-10 19:01:00,85.7,68.7,30.14,SSW,207,0.0,0.0,57,0.00,SCT,,0.00,16.1,WeatherDisplay:10.37,2013-09-10 23:01:00,
2013-09-10 19:06:00,85.4,68.9,30.14,SSW,207,0.0,0.0,58,0.00,SCT,,0.00,13.8,WeatherDisplay:10.37,2013-09-10 23:06:00,
2013-09-10 19:11:00,85.1,69.2,30.14,SSW,207,0.0,0.0,59,0.00,SCT,,0.00,12.7,WeatherDisplay:10.37,2013-09-10 23:11:00,
2013-09-10 19:16:00,84.8,69.4,30.14,SSW,207,0.0,0.0,60,0.00,SCT,,0.00,8.1,WeatherDisplay:10.37,2013-09-10 23:16:00,
2013-09-10 19:21:00,84.5,69.1,30.14,SSW,207,0.0,0.0,60,0.00,SCT,,0.00,0.0,WeatherDisplay:10.37,2013-09-10 23:21:00,
2013-09-10 19:26:00,84.1,69.2,30.14,SSW,207,0.0,0.0,61,0.00,SCT,,0.00,0.0,WeatherDisplay:10.37,2013-09-10 23:26:00,
2013-09-10 19:31:00,83.9,69.5,30.14,SSW,207,0.0,0.0,62,0.00,SCT,,0.00,0.0,WeatherDisplay:10.37,2013-09-10 23:31:00,
2013-09-10 19:36:00,83.6,69.7,30.14,SSW,207,0.0,0.0,63,0.00,SCT,,0.00,0.0,WeatherDisplay:10.37,2013-09-10 23:36:00,
2013-09-10 19:46:00,82.8,69.3,30.15,SSW,207,0.0,0.0,64,0.00,SCT,,0.00,0.0,WeatherDisplay:10.37,2013-09-10 23:46:00,
2013-09-10 19:51:00,82.4,69.0,30.15,SSW,207,0.0,0.0,64,0.00,SCT,,0.00,0.0,WeatherDisplay:10.37,2013-09-10 23:51:00,
2013-09-10 19:56:00,82.0,69.1,30.15,SSW,208,0.0,0.0,65,0.00,SCT,,0.00,0.0,WeatherDisplay:10.37,2013-09-10 23:56:00,
2013-09-10 20:01:00,81.6,68.7,30.15,SSW,207,0.0,0.0,65,0.00,FEW,,0.00,0.0,WeatherDisplay:10.37,2013-09-11 00:01:00,
2013-09-10 20:11:00,81.0,69.0,30.15,SSW,207,0.0,0.0,67,0.00,FEW,,0.00,0.0,WeatherDisplay:10.37,2013-09-11 00:11:00,
2013-09-10 20:16:00,80.7,68.7,30.16,SSW,207,0.0,0.0,67,0.00,FEW,,0.00,0.0,WeatherDisplay:10.37,2013-09-11 00:16:00,
2013-09-10 20:21:00,80.3,68.8,30.16,SSW,207,0.0,0.0,68,0.00,FEW,,0.00,0.0,WeatherDisplay:10.37,2013-09-11 00:21:00,
2013-09-10 20:26:00,79.9,68.8,30.16,SSW,207,0.0,0.0,69,0.00,FEW,,0.00,0.0,WeatherDisplay:10.37,2013-09-11 00:26:00,
2013-09-10 20:31:00,79.8,69.1,30.16,SSW,207,0.0,0.0,70,0.00,FEW,,0.00,0.0,WeatherDisplay:10.37,2013-09-11 00:31:00,
2013-09-10 20:36:00,79.5,69.3,30.16,SSW,207,0.0,0.0,71,0.00,FEW,,0.00,0.0,WeatherDisplay:10.37,2013-09-11 00:36:00,
2013-09-10 20:41:00,79.2,69.0,30.16,SSW,207,0.0,0.0,71,0.00,FEW,,0.00,0.0,WeatherDisplay:10.37,2013-09-11 00:41:00,
2013-09-10 20:46:00,79.0,69.2,30.17,SSW,207,0.0,0.0,72,0.00,FEW,,0.00,0.0,WeatherDisplay:10.37,2013-09-11 00:46:00,
2013-09-10 20:51:00,78.7,69.3,30.17,SSW,207,0.0,0.0,73,0.00,FEW,,0.00,0.0,WeatherDisplay:10.37,2013-09-11 00:51:00,
2013-09-10 20:56:00,78.5,69.5,30.17,SSW,207,0.0,0.0,74,0.00,FEW,,0.00,0.0,WeatherDisplay:10.37,2013-09-11 00:56:00,
2013-09-10 21:01:00,78.3,68.9,30.17,SSW,207,0.0,0.0,73,0.00,FEW,,0.00,0.0,WeatherDisplay:10.37,2013-09-11 01:01:00,
2013-09-10 21:11:00,77.8,68.9,30.17,SSW,207,0.0,0.0,74,0.00,FEW,,0.00,0.0,WeatherDisplay:10.37,2013-09-11 01:11:00,
2013-09-10 21:16:00,77.7,69.1,30.18,SSW,207,0.0,0.0,75,0.00,FEW,,0.00,0.0,WeatherDisplay:10.37,2013-09-11 01:16:00,
2013-09-10 21:21:00,77.4,68.9,30.18,SSW,207,0.0,0.0,75,0.00,FEW,,0.00,0.0,WeatherDisplay:10.37,2013-09-11 01:21:00,
2013-09-10 21:26:00,77.2,68.7,30.18,SSW,207,0.0,0.0,75,0.00,FEW,,0.00,0.0,WeatherDisplay:10.37,2013-09-11 01:26:00,
2013-09-10 21:31:00,77.0,68.9,30.19,SSW,207,0.0,0.0,76,0.00,FEW,,0.00,0.0,WeatherDisplay:10.37,2013-09-11 01:31:00,
2013-09-10 21:36:00,76.8,68.7,30.19,SSW,207,0.0,0.0,76,0.00,FEW,,0.00,0.0,WeatherDisplay:10.37,2013-09-11 01:36:00,
2013-09-10 21:41:00,76.7,69.0,30.19,SSW,207,0.0,0.0,77,0.00,FEW,,0.00,0.0,WeatherDisplay:10.37,2013-09-11 01:41:00,
2013-09-10 21:46:00,76.7,68.9,30.19,SSW,207,0.0,0.0,77,0.00,FEW,,0.00,0.0,WeatherDisplay:10.37,2013-09-11 01:46:00,
2013-09-10 21:51:00,76.5,68.7,30.19,SSW,207,0.0,0.0,77,0.00,FEW,,0.00,0.0,WeatherDisplay:10.37,2013-09-11 01:51:00,
2013-09-10 21:56:00,76.3,68.6,30.19,SSW,207,0.0,0.0,77,0.00,FEW,,0.00,0.0,WeatherDisplay:10.37,2013-09-11 01:56:00,
2013-09-10 22:01:00,76.1,68.4,30.19,SSW,207,0.0,1.0,77,0.00,CLR,,0.00,0.0,WeatherDisplay:10.37,2013-09-11 02:01:00,
2013-09-10 22:06:00,76.1,68.4,30.19,West,276,0.0,5.0,77,0.00,CLR,,0.00,0.0,WeatherDisplay:10.37,2013-09-11 02:06:00,
2013-09-10 22:11:00,76.3,68.9,30.19,North,359,0.0,5.0,78,0.00,CLR,,0.00,0.0,WeatherDisplay:10.37,2013-09-11 02:11:00,
2013-09-10 22:16:00,76.3,68.9,30.20,WNW,302,0.0,5.0,78,0.00,CLR,,0.00,0.0,WeatherDisplay:10.37,2013-09-11 02:16:00,
2013-09-10 22:21:00,76.5,69.1,30.20,NW,307,0.0,2.0,78,0.00,CLR,,0.00,0.0,WeatherDisplay:10.37,2013-09-11 02:21:00,
2013-09-10 22:26:00,76.7,69.3,30.20,NNE,32,0.0,2.0,78,0.00,CLR,,0.00,0.0,WeatherDisplay:10.37,2013-09-11 02:26:00,
2013-09-10 22:31:00,76.7,69.3,30.20,ENE,59,0.0,2.0,78,0.00,CLR,,0.00,0.0,WeatherDisplay:10.37,2013-09-11 02:31:00,
2013-09-10 22:36:00,76.7,69.3,30.20,East,92,0.0,0.0,78,0.00,CLR,,0.00,0.0,WeatherDisplay:10.37,2013-09-11 02:36:00,
2013-09-10 22:41:00,76.7,69.3,30.20,East,92,0.0,0.0,78,0.00,CLR,,0.00,0.0,WeatherDisplay:10.37,2013-09-11 02:41:00,
2013-09-10 22:46:00,76.7,69.7,30.20,East,92,0.0,1.0,79,0.00,CLR,,0.00,0.0,WeatherDisplay:10.37,2013-09-11 02:46:00,
2013-09-10 22:51:00,76.7,69.7,30.20,East,82,0.0,1.0,79,0.00,CLR,,0.00,0.0,WeatherDisplay:10.37,2013-09-11 02:51:00,
2013-09-10 22:56:00,76.7,69.7,30.20,ENE,62,0.0,0.0,79,0.00,CLR,,0.00,0.0,WeatherDisplay:10.37,2013-09-11 02:56:00,
2013-09-10 23:06:00,76.5,69.5,30.20,ENE,62,0.0,0.0,79,0.00,FEW,,0.00,0.0,WeatherDisplay:10.37,2013-09-11 03:06:00,
2013-09-10 23:11:00,76.4,69.8,30.20,ENE,62,0.0,0.0,80,0.00,FEW,,0.00,0.0,WeatherDisplay:10.37,2013-09-11 03:11:00,
2013-09-10 23:16:00,76.3,69.7,30.20,ENE,62,0.0,0.0,80,0.00,FEW,,0.00,0.0,WeatherDisplay:10.37,2013-09-11 03:16:00,
2013-09-10 23:21:00,76.3,69.6,30.20,ENE,62,0.0,0.0,80,0.00,FEW,,0.00,0.0,WeatherDisplay:10.37,2013-09-11 03:21:00,
2013-09-10 23:26:00,76.1,69.5,30.20,ENE,62,0.0,0.0,80,0.00,FEW,,0.00,0.0,WeatherDisplay:10.37,2013-09-11 03:26:00,
2013-09-10 23:31:00,76.0,69.7,30.20,ENE,62,0.0,0.0,81,0.00,FEW,,0.00,0.0,WeatherDisplay:10.37,2013-09-11 03:31:00,
2013-09-10 23:36:00,76.0,69.7,30.20,ENE,62,0.0,0.0,81,0.00,FEW,,0.00,0.0,WeatherDisplay:10.37,2013-09-11 03:36:00,
2013-09-10 23:41:00,75.8,69.6,30.20,ENE,62,0.0,0.0,81,0.00,FEW,,0.00,0.0,WeatherDisplay:10.37,2013-09-11 03:41:00,
2013-09-10 23:46:00,75.6,69.4,30.20,ENE,62,0.0,0.0,81,0.00,FEW,,0.00,0.0,WeatherDisplay:10.37,2013-09-11 03:46:00,
2013-09-10 23:51:00,75.6,69.4,30.20,ENE,62,0.0,0.0,81,0.00,FEW,,0.00,0.0,WeatherDisplay:10.37,2013-09-11 03:51:00,
2013-09-10 23:56:00,75.4,69.2,30.20,ENE,62,0.0,0.0,81,0.00,FEW,,0.00,0.0,WeatherDisplay:10.37,2013-09-11 03:56:00,